createdAt,value
2018-03-06T00:00:49.011Z,37.05
2018-03-06T00:03:16.519Z,34.45
2018-03-06T00:05:44.043Z,35.75
2018-03-06T00:08:11.551Z,34.22
2018-03-06T00:10:39.843Z,32.05
2018-03-06T00:13:07.361Z,34.70
2018-03-06T00:15:34.871Z,32.60
2018-03-06T00:18:02.387Z,31.27
2018-03-06T00:20:29.900Z,34.13
2018-03-06T00:22:57.415Z,31.92
2018-03-06T00:25:25.702Z,33.53
2018-03-06T00:27:53.978Z,34.83
2018-03-06T00:30:22.250Z,35.20
2018-03-06T00:32:50.543Z,30.75
2018-03-06T00:35:18.065Z,33.45
2018-03-06T00:37:46.367Z,36.97
2018-03-06T00:40:14.655Z,35.13
2018-03-06T00:42:42.926Z,34.85
2018-03-06T00:45:11.206Z,36.05
2018-03-06T00:47:38.735Z,33.25
2018-03-06T00:50:06.242Z,32.80
2018-03-06T00:52:33.788Z,35.75
2018-03-06T00:55:01.307Z,33.75
2018-03-06T00:57:28.815Z,33.38
2018-03-06T00:59:56.343Z,34.20
2018-03-06T01:02:24.670Z,34.35
2018-03-06T01:04:52.159Z,33.90
2018-03-06T01:07:19.671Z,35.67
2018-03-06T01:09:47.237Z,35.05
2018-03-06T01:12:14.751Z,35.10
2018-03-06T01:14:43.030Z,40.90
2018-03-06T01:17:11.455Z,38.25
2018-03-06T01:19:38.967Z,37.88
2018-03-06T01:22:07.255Z,37.13
2018-03-06T01:24:35.532Z,35.42
2018-03-06T01:27:03.826Z,35.42
2018-03-06T01:29:31.356Z,40.60
2018-03-06T01:31:59.647Z,39.60
2018-03-06T01:34:27.938Z,38.70
2018-03-06T01:36:55.470Z,38.53
2018-03-06T01:39:23.750Z,39.40
2018-03-06T01:41:52.039Z,37.65
2018-03-06T01:44:20.314Z,38.65
2018-03-06T01:46:48.591Z,37.95
2018-03-06T01:49:16.887Z,38.33
2018-03-06T01:51:56.365Z,37.83
2018-03-06T01:54:23.886Z,39.05
2018-03-06T01:56:51.402Z,39.55
2018-03-06T01:59:18.907Z,40.60
2018-03-06T02:01:46.410Z,40.42
2018-03-06T02:04:13.918Z,40.80
2018-03-06T02:06:41.431Z,39.83
2018-03-06T02:09:08.952Z,37.72
2018-03-06T02:11:36.479Z,36.33
2018-03-06T02:14:03.991Z,40.50
2018-03-06T02:16:31.519Z,37.13
2018-03-06T02:18:59.049Z,37.30
2018-03-06T02:21:27.339Z,41.78
2018-03-06T02:23:54.851Z,35.28
2018-03-06T02:26:22.381Z,37.90
2018-03-06T02:28:49.884Z,36.70
2018-03-06T02:31:17.471Z,37.63
2018-03-06T02:33:45.063Z,37.40
2018-03-06T02:36:12.587Z,38.80
2018-03-06T02:38:40.103Z,40.55
2018-03-06T02:41:07.627Z,37.13
2018-03-06T02:43:35.150Z,37.67
2018-03-06T02:46:12.466Z,35.70
2018-03-06T02:48:39.975Z,35.75
2018-03-06T02:51:07.490Z,37.53
2018-03-06T02:53:35.018Z,38.38
2018-03-06T02:56:03.295Z,39.95
2018-03-06T02:58:31.571Z,40.90
2018-03-06T03:00:59.854Z,38.10
2018-03-06T03:03:28.143Z,38.80
2018-03-06T03:05:55.658Z,35.30
2018-03-06T03:08:23.177Z,36.17
2018-03-06T03:10:50.727Z,41.75
2018-03-06T03:13:18.240Z,39.92
2018-03-06T03:15:45.768Z,41.92
2018-03-06T03:18:13.275Z,42.20
2018-03-06T03:20:41.563Z,44.38
2018-03-06T03:23:09.093Z,42.35
2018-03-06T03:25:38.119Z,43.17
2018-03-06T03:28:05.634Z,42.95
2018-03-06T03:30:33.169Z,42.83
2018-03-06T03:33:00.682Z,42.35
2018-03-06T03:35:28.947Z,43.75
2018-03-06T03:37:56.459Z,40.20
2018-03-06T03:40:23.963Z,40.97
2018-03-06T03:42:51.548Z,40.33
2018-03-06T03:45:19.083Z,42.80
2018-03-06T03:47:47.360Z,44.78
2018-03-06T03:50:15.690Z,48.30
2018-03-06T03:52:43.206Z,47.22
2018-03-06T03:55:11.491Z,47.70
2018-03-06T03:57:39.767Z,45.78
2018-03-06T04:00:08.036Z,50.92
2018-03-06T04:02:36.310Z,45.15
2018-03-06T04:05:04.588Z,47.67
2018-03-06T04:07:32.871Z,49.80
2018-03-06T04:10:01.151Z,48.65
2018-03-06T04:12:28.678Z,49.75
2018-03-06T04:14:56.190Z,49.88
2018-03-06T04:17:23.699Z,49.70
2018-03-06T04:19:51.207Z,50.80
2018-03-06T04:22:18.778Z,50.40
2018-03-06T04:24:46.290Z,51.00
2018-03-06T04:27:14.580Z,47.75
2018-03-06T04:29:42.854Z,48.83
2018-03-06T04:32:11.147Z,51.25
2018-03-06T04:34:38.670Z,50.47
2018-03-06T04:37:06.289Z,51.13
2018-03-06T04:39:33.812Z,51.10
2018-03-06T04:42:01.327Z,49.33
2018-03-06T04:44:28.850Z,51.55
2018-03-06T04:46:56.363Z,53.25
2018-03-06T04:49:23.879Z,53.42
2018-03-06T04:51:51.404Z,52.22
2018-03-06T04:54:19.690Z,50.90
2018-03-06T04:56:47.203Z,51.63
2018-03-06T04:59:14.715Z,53.33
2018-03-06T05:01:42.226Z,51.92
2018-03-06T05:04:09.734Z,50.33
2018-03-06T05:06:37.247Z,56.78
2018-03-06T05:09:04.765Z,52.85
2018-03-06T05:11:32.274Z,56.95
2018-03-06T05:14:00.586Z,56.70
2018-03-06T05:16:28.132Z,57.38
2018-03-06T05:18:55.657Z,54.60
2018-03-06T05:21:23.174Z,55.10
2018-03-06T05:23:50.695Z,56.15
2018-03-06T05:26:18.991Z,54.45
2018-03-06T05:28:46.523Z,54.45
2018-03-06T05:31:14.814Z,55.63
2018-03-06T05:33:43.094Z,54.13
2018-03-06T05:36:10.619Z,54.25
2018-03-06T05:38:38.133Z,54.25
2018-03-06T05:41:05.664Z,55.05
2018-03-06T05:43:33.961Z,56.60
2018-03-06T05:46:01.470Z,52.25
2018-03-06T05:48:29.000Z,56.25
2018-03-06T05:50:56.520Z,57.67
2018-03-06T05:53:24.799Z,53.83
2018-03-06T05:55:53.095Z,56.50
2018-03-06T05:58:20.623Z,57.83
2018-03-06T06:00:48.936Z,55.90
2018-03-06T06:03:16.450Z,57.90
2018-03-06T06:05:44.738Z,53.65
2018-03-06T06:08:13.020Z,56.78
2018-03-06T06:10:41.405Z,55.47
2018-03-06T06:13:09.696Z,55.75
2018-03-06T06:15:37.211Z,58.70
2018-03-06T06:18:04.712Z,55.05
2018-03-06T06:20:32.210Z,54.60
2018-03-06T06:22:59.708Z,53.08
2018-03-06T06:25:27.988Z,54.83
2018-03-06T06:27:55.536Z,53.45
2018-03-06T06:30:23.819Z,52.85
2018-03-06T06:32:52.091Z,50.47
2018-03-06T06:35:19.611Z,51.35
2018-03-06T06:37:47.119Z,50.33
2018-03-06T06:40:15.375Z,51.58
2018-03-06T06:42:42.910Z,47.15
2018-03-06T06:45:10.392Z,47.75
2018-03-06T06:47:37.888Z,48.00
2018-03-06T06:50:05.395Z,46.28
2018-03-06T06:52:32.887Z,46.80
2018-03-06T06:55:01.167Z,48.13
2018-03-06T06:57:29.419Z,44.13
2018-03-06T06:59:56.931Z,50.63
2018-03-06T07:02:24.440Z,47.65
2018-03-06T07:04:51.946Z,45.88
2018-03-06T07:07:19.442Z,47.97
2018-03-06T07:09:46.934Z,48.03
2018-03-06T07:12:15.206Z,44.85
2018-03-06T07:14:43.489Z,45.78
2018-03-06T07:17:11.751Z,44.70
2018-03-06T07:19:39.245Z,47.62
2018-03-06T07:22:06.747Z,46.00
2018-03-06T07:24:34.256Z,45.70
2018-03-06T07:27:01.803Z,46.33
2018-03-06T07:29:30.116Z,48.28
2018-03-06T07:31:57.619Z,47.03
2018-03-06T07:34:25.132Z,45.10
2018-03-06T07:36:52.678Z,47.97
2018-03-06T07:39:20.174Z,48.10
2018-03-06T07:41:47.676Z,47.35
2018-03-06T07:44:15.183Z,45.38
2018-03-06T07:46:42.687Z,48.05
2018-03-06T07:49:10.955Z,47.47
2018-03-06T07:51:39.223Z,46.17
2018-03-06T07:54:06.751Z,47.78
2018-03-06T07:56:34.258Z,45.92
2018-03-06T07:59:02.530Z,47.30
2018-03-06T08:01:30.811Z,47.70
2018-03-06T08:03:59.071Z,47.15
2018-03-06T08:06:27.339Z,46.30
2018-03-06T08:08:54.855Z,43.28
2018-03-06T08:11:22.351Z,45.63
2018-03-06T08:13:49.839Z,43.35
2018-03-06T08:16:18.100Z,42.88
2018-03-06T08:18:46.366Z,45.33
2018-03-06T08:21:13.894Z,41.92
2018-03-06T08:23:41.387Z,41.05
2018-03-06T08:26:08.879Z,43.65
2018-03-06T08:28:36.375Z,42.20
2018-03-06T08:31:03.895Z,42.05
2018-03-06T08:33:31.565Z,41.10
2018-03-06T08:35:59.336Z,41.80
2018-03-06T08:38:26.843Z,42.42
2018-03-06T08:40:54.367Z,40.20
2018-03-06T08:43:21.884Z,40.58
2018-03-06T08:45:50.155Z,40.95
2018-03-06T08:48:18.430Z,42.75
2018-03-06T08:50:46.778Z,38.88
2018-03-06T08:53:14.303Z,38.95
2018-03-06T08:55:41.831Z,38.22
2018-03-06T08:58:09.392Z,37.10
2018-03-06T09:00:37.699Z,38.10
2018-03-06T09:03:05.365Z,38.15
2018-03-06T09:05:32.888Z,33.95
2018-03-06T09:08:10.305Z,34.08
2018-03-06T09:10:37.956Z,34.92
2018-03-06T09:13:05.493Z,34.78
2018-03-06T09:15:33.758Z,34.92
2018-03-06T09:18:01.273Z,34.40
2018-03-06T09:20:28.778Z,33.38
2018-03-06T09:22:56.346Z,32.90
2018-03-06T09:25:24.607Z,32.75
2018-03-06T09:27:53.614Z,32.38
2018-03-06T09:30:21.898Z,33.10
2018-03-06T09:32:50.211Z,33.75
2018-03-06T09:35:17.707Z,32.97
2018-03-06T09:37:45.976Z,34.35
2018-03-06T09:40:13.500Z,34.17
2018-03-06T09:42:41.073Z,33.67
2018-03-06T09:45:08.691Z,33.90
2018-03-06T09:47:36.962Z,32.38
2018-03-06T09:50:05.236Z,31.95
2018-03-06T09:52:33.515Z,32.63
2018-03-06T09:55:01.815Z,31.52
2018-03-06T09:57:29.311Z,33.15
2018-03-06T09:59:56.815Z,34.70
2018-03-06T10:02:25.095Z,31.60
2018-03-06T10:04:53.352Z,31.67
2018-03-06T10:07:20.873Z,31.00
2018-03-06T10:09:48.375Z,32.40
2018-03-06T10:12:16.663Z,32.03
2018-03-06T10:14:44.920Z,31.85
2018-03-06T10:17:12.507Z,30.80
2018-03-06T10:19:40.059Z,30.83
2018-03-06T10:22:08.371Z,30.20
2018-03-06T10:24:35.893Z,31.70
2018-03-06T10:27:04.188Z,29.58
2018-03-06T10:29:31.690Z,29.95
2018-03-06T10:31:59.194Z,30.52
2018-03-06T10:34:26.732Z,30.48
2018-03-06T10:36:55.011Z,28.02
2018-03-06T10:39:23.279Z,31.30
2018-03-06T10:41:50.849Z,30.73
2018-03-06T10:44:19.183Z,31.00
2018-03-06T10:46:46.687Z,29.80
2018-03-06T10:49:14.950Z,27.55
2018-03-06T10:51:42.448Z,28.52
2018-03-06T10:54:09.974Z,30.92
2018-03-06T10:56:38.272Z,30.52
2018-03-06T10:59:05.794Z,28.85
2018-03-06T11:01:33.290Z,28.70
2018-03-06T11:04:00.799Z,30.40
2018-03-06T11:06:28.299Z,30.37
2018-03-06T11:08:56.606Z,28.62
2018-03-06T11:11:24.157Z,29.98
2018-03-06T11:13:51.647Z,31.42
2018-03-06T11:16:19.188Z,30.30
2018-03-06T11:18:46.691Z,31.30
2018-03-06T11:21:14.233Z,31.67
2018-03-06T11:23:41.767Z,31.52
2018-03-06T11:26:09.263Z,34.50
2018-03-06T11:28:36.762Z,32.35
2018-03-06T11:31:04.317Z,33.47
2018-03-06T11:33:31.823Z,32.13
2018-03-06T11:35:59.322Z,32.72
2018-03-06T11:38:27.590Z,33.85
2018-03-06T11:40:55.863Z,34.15
2018-03-06T11:43:24.123Z,34.95
2018-03-06T11:45:51.719Z,31.58
2018-03-06T11:48:19.211Z,32.33
2018-03-06T11:50:46.724Z,32.03
2018-03-06T11:53:14.983Z,34.20
2018-03-06T11:55:42.481Z,35.50
2018-03-06T11:58:09.990Z,35.15
2018-03-06T12:00:37.530Z,34.58
2018-03-06T12:03:05.034Z,35.97
2018-03-06T12:05:33.356Z,34.33
2018-03-06T12:08:00.864Z,34.30
2018-03-06T12:10:29.127Z,34.55
2018-03-06T12:12:56.619Z,32.67
2018-03-06T12:15:24.119Z,33.40
2018-03-06T12:17:51.635Z,34.60
2018-03-06T12:20:19.131Z,35.20
2018-03-06T12:22:46.640Z,36.70
2018-03-06T12:25:14.899Z,34.72
2018-03-06T12:27:43.200Z,37.50
2018-03-06T12:30:10.763Z,34.53
2018-03-06T12:32:38.323Z,37.10
2018-03-06T12:35:05.876Z,34.75
2018-03-06T12:37:34.247Z,36.90
2018-03-06T12:40:02.546Z,37.50
2018-03-06T12:42:30.048Z,35.47
2018-03-06T12:44:57.564Z,38.72
2018-03-06T12:47:25.151Z,36.20
2018-03-06T12:49:52.691Z,36.63
2018-03-06T12:52:20.196Z,37.10
2018-03-06T12:54:48.491Z,37.00
2018-03-06T12:57:16.019Z,36.92
2018-03-06T12:59:43.663Z,38.38
2018-03-06T13:02:11.247Z,38.75
2018-03-06T13:04:38.750Z,38.50
2018-03-06T13:07:06.308Z,40.17
2018-03-06T13:09:33.879Z,39.15
2018-03-06T13:12:01.390Z,40.78
2018-03-06T13:14:28.935Z,41.53
2018-03-06T13:16:56.435Z,41.05
2018-03-06T13:19:24.728Z,39.20
2018-03-06T13:21:52.250Z,40.00
2018-03-06T13:24:20.526Z,41.72
2018-03-06T13:26:48.078Z,41.20
2018-03-06T13:29:15.619Z,38.33
2018-03-06T13:31:43.138Z,40.80
2018-03-06T13:34:10.693Z,42.75
2018-03-06T13:36:38.187Z,39.67
2018-03-06T13:39:05.702Z,38.97
2018-03-06T13:41:33.223Z,38.97
2018-03-06T13:44:00.722Z,39.72
2018-03-06T13:46:28.273Z,39.13
2018-03-06T13:48:56.547Z,38.53
2018-03-06T13:51:24.819Z,36.95
2018-03-06T13:53:53.084Z,37.95
2018-03-06T13:56:20.575Z,41.08
2018-03-06T13:58:48.094Z,38.70
2018-03-06T14:01:15.706Z,39.20
2018-03-06T14:03:43.260Z,37.22
2018-03-06T14:06:10.813Z,39.75
2018-03-06T14:08:38.311Z,37.90
2018-03-06T14:11:05.845Z,38.70
2018-03-06T14:13:33.352Z,36.90
2018-03-06T14:16:00.874Z,38.65
2018-03-06T14:18:28.418Z,40.47
2018-03-06T14:20:55.927Z,41.45
2018-03-06T14:23:23.444Z,40.50
2018-03-06T14:25:50.943Z,41.72
2018-03-06T14:28:18.443Z,40.08
2018-03-06T14:30:45.951Z,39.88
2018-03-06T14:33:13.474Z,39.28
2018-03-06T14:35:40.982Z,39.80
2018-03-06T14:38:08.493Z,41.15
2018-03-06T14:40:35.996Z,41.25
2018-03-06T14:43:05.003Z,42.30
2018-03-06T14:45:33.259Z,42.13
2018-03-06T14:48:00.773Z,41.00
2018-03-06T14:50:28.280Z,42.42
2018-03-06T14:52:55.796Z,41.88
2018-03-06T14:55:23.327Z,43.67
2018-03-06T14:57:51.594Z,41.35
2018-03-06T15:00:19.888Z,39.55
2018-03-06T15:02:47.409Z,40.72
2018-03-06T15:05:14.944Z,39.65
2018-03-06T15:07:42.435Z,41.05
2018-03-06T15:10:09.934Z,39.55
2018-03-06T15:12:37.432Z,40.30
2018-03-06T15:15:04.922Z,40.47
2018-03-06T15:17:33.200Z,40.22
2018-03-06T15:20:01.467Z,42.55
2018-03-06T15:22:29.729Z,42.03
2018-03-06T15:24:57.228Z,41.60
2018-03-06T15:27:24.736Z,41.60
2018-03-06T15:29:52.238Z,41.83
2018-03-06T15:32:19.758Z,40.47
2018-03-06T15:34:47.259Z,44.33
2018-03-06T15:37:14.767Z,59.15
2018-03-06T15:39:42.268Z,51.58
2018-03-06T15:42:10.546Z,45.08
2018-03-06T15:44:38.839Z,45.95
2018-03-06T15:47:06.343Z,43.03
2018-03-06T15:49:33.839Z,44.85
2018-03-06T15:52:02.111Z,40.72
2018-03-06T15:54:30.421Z,41.00
2018-03-06T15:56:58.663Z,42.72
2018-03-06T15:59:26.931Z,40.95
2018-03-06T16:01:55.195Z,42.40
2018-03-06T16:04:22.687Z,43.08
2018-03-06T16:06:50.187Z,42.62
2018-03-06T16:09:17.718Z,45.58
2018-03-06T16:11:45.217Z,42.80
2018-03-06T16:14:12.719Z,41.50
2018-03-06T16:16:40.227Z,43.25
2018-03-06T16:19:07.745Z,42.08
2018-03-06T16:21:35.242Z,43.80
2018-03-06T16:24:02.732Z,46.42
2018-03-06T16:26:30.995Z,46.33
2018-03-06T16:28:58.488Z,43.53
2018-03-06T16:31:26.015Z,45.22
2018-03-06T16:33:53.554Z,44.05
2018-03-06T16:36:21.047Z,42.00
2018-03-06T16:38:49.307Z,44.47
2018-03-06T16:41:16.798Z,47.10
2018-03-06T16:43:44.370Z,45.35
2018-03-06T16:46:11.875Z,44.63
2018-03-06T16:48:39.387Z,45.00
2018-03-06T16:51:06.888Z,49.30
2018-03-06T16:53:34.475Z,53.05
2018-03-06T16:56:02.738Z,60.28
2018-03-06T16:58:31.031Z,57.97
2018-03-06T17:00:59.304Z,54.35
2018-03-06T17:03:27.559Z,53.25
2018-03-06T17:05:55.059Z,49.58
2018-03-06T17:08:22.599Z,46.45
2018-03-06T17:10:50.866Z,47.10
2018-03-06T17:13:19.139Z,45.25
2018-03-06T17:15:46.712Z,44.95
2018-03-06T17:18:14.991Z,46.90
2018-03-06T17:20:43.259Z,45.80
2018-03-06T17:23:11.582Z,42.22
2018-03-06T17:25:39.803Z,41.45
2018-03-06T17:28:07.342Z,44.17
2018-03-06T17:30:34.839Z,41.40
2018-03-06T17:33:03.123Z,42.20
2018-03-06T17:35:30.627Z,45.85
2018-03-06T17:37:58.147Z,48.58
2018-03-06T17:40:25.695Z,45.75
2018-03-06T17:42:53.960Z,45.12
2018-03-06T17:45:22.228Z,45.15
2018-03-06T17:47:50.524Z,41.10
2018-03-06T17:50:18.060Z,45.70
2018-03-06T17:52:45.560Z,45.30
2018-03-06T17:55:13.094Z,48.90
2018-03-06T17:57:41.359Z,46.13
2018-03-06T18:00:09.648Z,47.25
2018-03-06T18:02:37.925Z,47.67
2018-03-06T18:05:05.462Z,44.72
2018-03-06T18:07:32.965Z,47.78
2018-03-06T18:10:00.510Z,45.00
2018-03-06T18:12:28.034Z,44.25
2018-03-06T18:14:55.588Z,46.88
2018-03-06T18:17:23.111Z,50.95
2018-03-06T18:19:50.613Z,46.72
2018-03-06T18:22:18.131Z,49.83
2018-03-06T18:24:45.639Z,55.38
2018-03-06T18:27:13.155Z,48.85
2018-03-06T18:29:40.701Z,48.35
2018-03-06T18:32:08.233Z,48.95
2018-03-06T18:34:35.820Z,49.90
2018-03-06T18:37:03.324Z,47.25
2018-03-06T18:39:30.818Z,47.25
2018-03-06T18:41:58.323Z,46.47
2018-03-06T18:44:25.883Z,51.45
2018-03-06T18:46:53.387Z,50.50
2018-03-06T18:49:21.661Z,47.35
2018-03-06T18:51:49.984Z,52.80
2018-03-06T18:54:17.487Z,54.38
2018-03-06T18:56:45.771Z,52.42
2018-03-06T18:59:14.030Z,53.42
2018-03-06T19:02:14.112Z,61.80
2018-03-06T19:04:53.630Z,86.32
2018-03-06T19:07:21.145Z,124.25
2018-03-06T19:09:48.672Z,160.45
2018-03-06T19:12:16.183Z,173.73
2018-03-06T19:14:44.483Z,156.52
2018-03-06T19:17:11.979Z,95.57
2018-03-06T19:19:39.474Z,64.15
2018-03-06T19:22:07.767Z,66.22
2018-03-06T19:24:35.323Z,58.20
2018-03-06T19:27:02.826Z,53.25
2018-03-06T19:29:30.346Z,52.13
2018-03-06T19:31:57.855Z,50.85
2018-03-06T19:34:26.141Z,46.15
2018-03-06T19:36:54.400Z,47.95
2018-03-06T19:39:21.911Z,51.13
2018-03-06T19:41:49.412Z,50.80
2018-03-06T19:44:16.929Z,53.55
2018-03-06T19:46:44.463Z,67.93
2018-03-06T19:49:12.014Z,58.40
2018-03-06T19:51:39.519Z,59.33
2018-03-06T19:54:07.029Z,56.40
2018-03-06T19:56:34.552Z,74.30
2018-03-06T19:59:02.085Z,84.37
2018-03-06T20:01:29.621Z,85.20
2018-03-06T20:03:57.932Z,83.10
2018-03-06T20:06:25.476Z,85.03
2018-03-06T20:08:53.057Z,84.97
2018-03-06T20:11:20.628Z,100.50
2018-03-06T20:13:48.168Z,69.28
2018-03-06T20:16:15.698Z,67.87
2018-03-06T20:18:44.044Z,61.63
2018-03-06T20:21:11.563Z,60.92
2018-03-06T20:23:39.128Z,69.07
2018-03-06T20:26:06.640Z,66.50
2018-03-06T20:28:34.929Z,66.43
2018-03-06T20:31:09.184Z,61.37
2018-03-06T20:33:36.747Z,63.55
2018-03-06T20:36:04.243Z,59.40
2018-03-06T20:38:37.333Z,59.90
2018-03-06T20:41:04.887Z,63.95
2018-03-06T20:43:33.915Z,63.38
2018-03-06T20:46:07.850Z,62.47
2018-03-06T20:48:35.360Z,59.72
2018-03-06T20:51:02.864Z,72.57
2018-03-06T20:53:36.112Z,63.65
2018-03-06T20:56:03.624Z,55.25
2018-03-06T20:58:31.166Z,59.10
2018-03-06T21:00:58.725Z,55.55
2018-03-06T21:03:26.233Z,53.63
2018-03-06T21:05:53.740Z,53.92
2018-03-06T21:08:21.243Z,51.10
2018-03-06T21:10:48.737Z,51.65
2018-03-06T21:13:17.023Z,52.88
2018-03-06T21:15:45.282Z,52.30
2018-03-06T21:18:13.571Z,51.08
2018-03-06T21:20:41.847Z,52.70
2018-03-06T21:23:10.110Z,52.58
2018-03-06T21:25:37.604Z,53.65
2018-03-06T21:28:05.145Z,52.30
2018-03-06T21:30:32.673Z,48.42
2018-03-06T21:33:00.172Z,49.22
2018-03-06T21:35:27.673Z,49.33
2018-03-06T21:37:55.170Z,46.45
2018-03-06T21:40:23.455Z,50.12
2018-03-06T21:42:51.735Z,47.25
2018-03-06T21:45:19.991Z,52.55
2018-03-06T21:47:48.271Z,54.90
2018-03-06T21:50:16.527Z,63.03
2018-03-06T21:52:44.039Z,58.60
2018-03-06T21:55:11.547Z,55.67
2018-03-06T21:57:39.050Z,61.65
2018-03-06T22:00:06.559Z,55.63
2018-03-06T22:02:34.054Z,65.65
2018-03-06T22:05:02.316Z,65.28
2018-03-06T22:07:30.594Z,55.88
2018-03-06T22:09:58.137Z,69.32
2018-03-06T22:12:25.637Z,56.35
2018-03-06T22:14:53.156Z,57.88
2018-03-06T22:17:20.665Z,56.33
2018-03-06T22:19:48.180Z,53.92
2018-03-06T22:22:15.690Z,54.88
2018-03-06T22:24:43.188Z,53.95
2018-03-06T22:27:10.779Z,62.55
2018-03-06T22:29:39.063Z,54.67
2018-03-06T22:32:06.582Z,50.88
2018-03-06T22:34:34.101Z,67.57
2018-03-06T22:37:01.610Z,55.88
2018-03-06T22:39:29.815Z,52.88
2018-03-06T22:41:57.318Z,56.72
2018-03-06T22:44:24.814Z,54.20
2018-03-06T22:46:53.075Z,54.42
2018-03-06T22:49:20.593Z,55.45
2018-03-06T22:51:48.095Z,57.38
2018-03-06T22:54:16.359Z,60.75
2018-03-06T22:56:43.879Z,58.45
2018-03-06T22:59:11.379Z,56.47
2018-03-06T23:01:38.887Z,59.30
2018-03-06T23:04:06.383Z,59.67
2018-03-06T23:06:33.879Z,60.55
2018-03-06T23:09:02.163Z,53.22
2018-03-06T23:11:29.676Z,57.03
2018-03-06T23:13:57.171Z,56.70
2018-03-06T23:16:25.471Z,54.20
2018-03-06T23:18:52.973Z,52.55
2018-03-06T23:21:21.259Z,50.88
2018-03-06T23:23:48.747Z,51.85
2018-03-06T23:26:16.243Z,52.45
2018-03-06T23:28:43.759Z,50.88
2018-03-06T23:31:12.019Z,50.97
2018-03-06T23:33:40.295Z,52.03
2018-03-06T23:36:07.811Z,51.28
2018-03-06T23:38:35.311Z,50.08
2018-03-06T23:41:03.607Z,53.25
2018-03-06T23:43:31.119Z,53.05
2018-03-06T23:45:58.633Z,54.15
2018-03-06T23:48:26.166Z,56.05
2018-03-06T23:50:54.447Z,54.85
2018-03-06T23:53:22.715Z,55.67
2018-03-06T23:55:50.215Z,59.40
2018-03-06T23:58:17.711Z,61.53
